Veblen, South Dakota
Current Conditions -  °F | °C
As of 7:15 PM on Thursday 27 Nov 2014 (Local Time) from KGWR Reporting Station
Overcast Overcast  
Wind Chill: -23°   Ceiling: 1500
Heat Index: -13°   Visibility: 2.5mi
Dew Point: -16°   Wind: 16mph
Humidity: 79%   Direction: 130°SE
Pressure: 30.14"   Gusts: NA
Location:  45.86°N, 97.29°W
Report Text: KGWR 280115Z AUTO 13014KT 2 1/2SM FEW005 SCT010 OVC015 M13/M16 A3014 RMK A01 P000
Loading
Personal Weather Stations






























Interactive Weather Map New forecast layout! Learn more

10-Day Weather Forecast

Advertisements
Track Severe Weather on mobile